createdAt,value
2019-04-07T00:01:55.291Z,35.76
2019-04-07T00:05:10.312Z,35.73
2019-04-07T00:08:05.671Z,35.72
2019-04-07T00:11:09.422Z,35.74
2019-04-07T00:14:12.920Z,35.78
2019-04-07T00:17:17.910Z,35.76
2019-04-07T00:20:22.056Z,35.75
2019-04-07T00:23:25.665Z,35.77
2019-04-07T00:26:29.220Z,35.75
2019-04-07T00:29:32.659Z,35.75
2019-04-07T00:32:37.209Z,35.77
2019-04-07T00:35:40.685Z,35.75
2019-04-07T00:38:44.198Z,35.77
2019-04-07T00:41:48.721Z,35.79
2019-04-07T00:44:52.220Z,35.77
2019-04-07T00:47:55.950Z,35.77
2019-04-07T00:51:00.245Z,35.76
2019-04-07T00:54:03.983Z,35.71
2019-04-07T00:57:07.464Z,35.76
2019-04-07T01:00:12.435Z,35.73
2019-04-07T01:03:15.903Z,35.73
2019-04-07T01:06:19.356Z,35.75
2019-04-07T01:09:23.331Z,35.77
2019-04-07T01:12:27.038Z,35.71
2019-04-07T01:15:30.588Z,35.73
2019-04-07T01:18:34.025Z,35.72
2019-04-07T01:21:39.047Z,35.74
2019-04-07T01:24:43.152Z,35.70
2019-04-07T01:27:47.817Z,35.74
2019-04-07T01:30:52.341Z,35.73
2019-04-07T01:33:56.405Z,35.75
2019-04-07T01:37:01.020Z,35.72
2019-04-07T01:40:05.730Z,35.73
2019-04-07T01:43:17.498Z,35.74
2019-04-07T01:46:28.624Z,35.69
2019-04-07T01:50:02.181Z,35.70
2019-04-07T01:53:24.592Z,35.72
2019-04-07T01:56:47.197Z,35.72
2019-04-07T02:00:08.426Z,35.71
2019-04-07T02:03:29.963Z,35.73
2019-04-07T02:06:58.758Z,35.71
2019-04-07T02:10:16.245Z,35.69
2019-04-07T02:13:28.712Z,35.74
2019-04-07T02:16:57.847Z,35.73
2019-04-07T02:20:17.681Z,35.69
2019-04-07T02:23:37.171Z,35.70
2019-04-07T02:26:45.714Z,35.69
2019-04-07T02:30:14.544Z,35.73
2019-04-07T02:33:24.880Z,35.68
2019-04-07T02:36:47.423Z,35.69
2019-04-07T02:40:10.272Z,35.69
2019-04-07T02:43:24.052Z,35.68
2019-04-07T02:46:46.291Z,35.67
2019-04-07T02:50:17.749Z,35.68
2019-04-07T02:53:33.025Z,35.62
2019-04-07T02:56:49.590Z,35.67
2019-04-07T02:59:59.657Z,35.67
2019-04-07T03:03:21.437Z,35.69
2019-04-07T03:06:51.875Z,35.65
2019-04-07T03:09:58.494Z,35.63
2019-04-07T03:13:19.704Z,35.66
2019-04-07T03:16:42.355Z,35.66
2019-04-07T03:19:52.175Z,35.70
2019-04-07T03:23:26.589Z,35.66
2019-04-07T03:26:51.395Z,35.64
2019-04-07T03:30:03.554Z,35.61
2019-04-07T03:33:22.679Z,35.61
2019-04-07T03:37:12.858Z,35.68
2019-04-07T03:40:02.467Z,35.64
2019-04-07T03:43:15.417Z,35.63
2019-04-07T03:46:28.513Z,35.61
2019-04-07T03:49:49.675Z,35.65
2019-04-07T03:53:00.102Z,35.58
2019-04-07T03:56:12.196Z,35.64
2019-04-07T03:59:35.317Z,35.65
2019-04-07T04:02:57.048Z,35.63
2019-04-07T04:06:10.593Z,35.63
2019-04-07T04:09:22.248Z,35.61
2019-04-07T04:12:34.223Z,35.56
2019-04-07T04:15:48.224Z,35.62
2019-04-07T04:18:52.585Z,35.63
2019-04-07T04:21:56.286Z,35.60
2019-04-07T04:25:00.879Z,35.60
2019-04-07T04:28:05.557Z,35.57
2019-04-07T04:31:09.457Z,35.58
2019-04-07T04:34:14.001Z,35.55
2019-04-07T04:37:33.281Z,35.62
2019-04-07T04:40:24.254Z,35.58
2019-04-07T04:43:27.980Z,35.60
2019-04-07T04:46:34.465Z,35.54
2019-04-07T04:49:39.067Z,35.57
2019-04-07T04:52:42.864Z,35.51
2019-04-07T04:55:47.196Z,35.52
2019-04-07T04:58:50.851Z,35.55
2019-04-07T05:01:54.285Z,35.60
2019-04-07T05:04:57.812Z,35.54
2019-04-07T05:08:04.051Z,35.52
2019-04-07T05:11:06.873Z,35.57
2019-04-07T05:14:10.545Z,35.54
2019-04-07T05:17:15.272Z,35.54
2019-04-07T05:20:19.005Z,35.53
2019-04-07T05:23:23.109Z,35.53
2019-04-07T05:26:26.591Z,35.53
2019-04-07T05:29:31.242Z,35.48
2019-04-07T05:32:34.986Z,35.50
2019-04-07T05:35:38.529Z,35.46
2019-04-07T05:38:42.146Z,35.48
2019-04-07T05:41:45.826Z,35.47
2019-04-07T05:44:49.452Z,35.48
2019-04-07T05:47:53.481Z,35.48
2019-04-07T05:51:00.507Z,35.45
2019-04-07T05:54:02.718Z,35.49
2019-04-07T05:57:06.319Z,35.50
2019-04-07T06:00:13.633Z,35.45
2019-04-07T06:03:16.501Z,35.47
2019-04-07T06:06:20.893Z,35.46
2019-04-07T06:09:26.417Z,35.46
2019-04-07T06:12:29.973Z,35.47
2019-04-07T06:15:35.950Z,35.41
2019-04-07T06:18:39.515Z,35.42
2019-04-07T06:21:46.045Z,35.46
2019-04-07T06:24:48.780Z,35.42
2019-04-07T06:27:53.414Z,35.41
2019-04-07T06:31:00.235Z,35.41
2019-04-07T06:34:03.303Z,35.40
2019-04-07T06:37:06.892Z,35.38
2019-04-07T06:40:12.251Z,35.36
2019-04-07T06:43:17.050Z,35.42
2019-04-07T06:46:39.046Z,35.45
2019-04-07T06:50:05.627Z,35.41
2019-04-07T06:53:20.662Z,35.39
2019-04-07T06:56:42.506Z,35.40
2019-04-07T07:00:23.622Z,35.41
2019-04-07T07:03:39.172Z,35.38
2019-04-07T07:07:06.249Z,35.41
2019-04-07T07:10:30.425Z,35.39
2019-04-07T07:13:55.020Z,35.40
2019-04-07T07:17:14.931Z,35.38
2019-04-07T07:20:27.621Z,35.41
2019-04-07T07:23:33.258Z,35.42
2019-04-07T07:26:36.806Z,35.44
2019-04-07T07:29:40.935Z,35.36
2019-04-07T07:32:44.663Z,35.38
2019-04-07T07:35:49.192Z,35.36
2019-04-07T07:38:59.843Z,35.39
2019-04-07T07:41:58.476Z,35.37
2019-04-07T07:45:02.646Z,35.35
2019-04-07T07:48:07.421Z,35.36
2019-04-07T07:51:13.282Z,35.37
2019-04-07T07:54:17.319Z,35.37
2019-04-07T07:57:23.430Z,35.37
2019-04-07T08:00:26.603Z,35.38
2019-04-07T08:03:30.405Z,35.39
2019-04-07T08:06:34.599Z,35.42
2019-04-07T08:09:39.341Z,35.36
2019-04-07T08:12:43.709Z,35.40
2019-04-07T08:15:47.471Z,35.43
2019-04-07T08:18:51.085Z,35.42
2019-04-07T08:21:54.676Z,35.41
2019-04-07T08:24:58.823Z,35.43
2019-04-07T08:28:04.570Z,35.43
2019-04-07T08:31:07.818Z,35.43
2019-04-07T08:34:12.096Z,35.52
2019-04-07T08:37:16.230Z,36.01
2019-04-07T08:40:19.955Z,36.15
2019-04-07T08:43:24.687Z,36.08
2019-04-07T08:46:35.238Z,36.05
2019-04-07T08:49:36.558Z,36.03
2019-04-07T08:52:42.677Z,36.01
2019-04-07T08:55:48.556Z,35.97
2019-04-07T08:58:51.088Z,35.93
2019-04-07T09:01:54.663Z,35.92
2019-04-07T09:04:58.118Z,35.89
2019-04-07T09:08:05.539Z,35.90
2019-04-07T09:11:15.888Z,35.88
2019-04-07T09:14:20.246Z,35.83
2019-04-07T09:17:53.194Z,35.84
2019-04-07T09:21:37.259Z,35.84
2019-04-07T09:24:40.345Z,35.81
2019-04-07T09:28:03.223Z,35.81
2019-04-07T09:31:14.344Z,35.78
2019-04-07T09:34:44.663Z,35.73
2019-04-07T09:38:23.598Z,35.75
2019-04-07T09:41:35.316Z,35.76
2019-04-07T09:44:51.720Z,35.72
2019-04-07T09:48:04.118Z,35.68
2019-04-07T09:51:30.974Z,35.71
2019-04-07T09:55:09.469Z,35.69
2019-04-07T09:58:25.186Z,35.71
2019-04-07T10:01:51.927Z,35.68
2019-04-07T10:05:16.101Z,35.70
2019-04-07T10:08:31.612Z,35.66
2019-04-07T10:11:52.886Z,35.63
2019-04-07T10:15:07.690Z,35.62
2019-04-07T10:18:25.276Z,35.56
2019-04-07T10:21:49.712Z,35.52
2019-04-07T10:25:15.563Z,35.45
2019-04-07T10:28:30.246Z,35.39
2019-04-07T10:31:47.378Z,35.37
2019-04-07T10:35:13.667Z,35.35
2019-04-07T10:38:40.113Z,35.32
2019-04-07T10:41:53.159Z,35.31
2019-04-07T10:45:12.019Z,35.25
2019-04-07T10:48:24.874Z,35.22
2019-04-07T10:51:54.793Z,35.23
2019-04-07T10:55:09.040Z,35.23
2019-04-07T10:58:20.974Z,35.20
2019-04-07T11:01:52.294Z,35.16
2019-04-07T11:05:01.931Z,35.11
2019-04-07T11:08:30.950Z,35.09
2019-04-07T11:11:53.251Z,35.02
2019-04-07T11:15:31.337Z,35.66
2019-04-07T11:19:02.000Z,35.90
2019-04-07T11:22:23.650Z,35.98
2019-04-07T11:25:46.089Z,35.92
2019-04-07T11:28:54.225Z,36.02
2019-04-07T11:32:04.323Z,35.87
2019-04-07T11:35:22.204Z,35.64
2019-04-07T11:38:51.640Z,35.55
2019-04-07T11:42:15.332Z,35.46
2019-04-07T11:45:56.138Z,35.41
2019-04-07T11:49:10.735Z,35.37
2019-04-07T11:52:23.573Z,35.30
2019-04-07T11:55:47.513Z,35.25
2019-04-07T11:59:20.354Z,35.19
2019-04-07T12:02:36.404Z,35.16
2019-04-07T12:05:48.436Z,35.14
2019-04-07T12:09:03.337Z,35.06
2019-04-07T12:12:18.590Z,35.07
2019-04-07T12:15:37.259Z,35.09
2019-04-07T12:19:00.178Z,35.05
2019-04-07T12:22:22.757Z,34.97
2019-04-07T12:25:56.880Z,34.99
2019-04-07T12:29:14.893Z,34.99
2019-04-07T12:32:29.232Z,34.99
2019-04-07T12:35:53.502Z,34.96
2019-04-07T12:39:16.206Z,34.96
2019-04-07T12:42:44.805Z,34.97
2019-04-07T12:46:12.989Z,34.92
2019-04-07T12:49:36.281Z,34.90
2019-04-07T12:53:04.870Z,34.89
2019-04-07T12:56:18.774Z,34.88
2019-04-07T12:59:48.684Z,34.88
2019-04-07T13:03:16.908Z,34.86
2019-04-07T13:06:42.219Z,34.84
2019-04-07T13:09:52.392Z,34.86
2019-04-07T13:13:13.883Z,34.83
2019-04-07T13:16:43.788Z,34.80
2019-04-07T13:20:00.893Z,34.76
2019-04-07T13:23:12.377Z,34.73
2019-04-07T13:26:34.558Z,34.71
2019-04-07T13:29:46.567Z,34.71
2019-04-07T13:33:01.640Z,34.68
2019-04-07T13:36:32.076Z,34.73
2019-04-07T13:40:03.976Z,34.69
2019-04-07T13:43:26.493Z,34.69
2019-04-07T13:46:49.043Z,34.70
2019-04-07T13:50:02.104Z,34.69
2019-04-07T13:53:14.556Z,34.82
2019-04-07T13:56:40.778Z,34.85
2019-04-07T13:59:53.219Z,34.74
2019-04-07T14:03:03.752Z,34.70
2019-04-07T14:06:16.345Z,34.63
2019-04-07T14:09:57.224Z,34.84
2019-04-07T14:13:15.999Z,34.88
2019-04-07T14:16:34.661Z,34.91
2019-04-07T14:19:57.934Z,34.94
2019-04-07T14:23:09.014Z,34.94
2019-04-07T14:26:27.989Z,34.93
2019-04-07T14:29:40.612Z,34.95
2019-04-07T14:33:12.304Z,34.88
2019-04-07T14:36:47.994Z,34.84
2019-04-07T14:40:13.299Z,34.80
2019-04-07T14:43:31.073Z,34.77
2019-04-07T14:47:01.887Z,34.74
2019-04-07T14:50:30.965Z,34.76
2019-04-07T14:53:53.023Z,34.77
2019-04-07T14:57:22.404Z,34.84
2019-04-07T15:00:44.020Z,34.83
2019-04-07T15:03:48.601Z,34.85
2019-04-07T15:07:08.074Z,34.79
2019-04-07T15:10:23.138Z,34.79
2019-04-07T15:13:28.296Z,34.83
2019-04-07T15:16:32.917Z,34.84
2019-04-07T15:19:37.487Z,34.83
2019-04-07T15:22:44.793Z,34.83
2019-04-07T15:25:47.459Z,34.77
2019-04-07T15:28:51.025Z,34.72
2019-04-07T15:31:54.502Z,34.76
2019-04-07T15:34:59.001Z,34.68
2019-04-07T15:38:03.961Z,34.75
2019-04-07T15:41:10.723Z,34.77
2019-04-07T15:44:14.413Z,34.83
2019-04-07T15:47:18.144Z,34.87
2019-04-07T15:50:22.741Z,34.87
2019-04-07T15:53:29.137Z,34.90
2019-04-07T15:56:33.715Z,34.92
2019-04-07T15:59:37.411Z,34.91
2019-04-07T16:02:43.455Z,34.93
2019-04-07T16:05:48.026Z,34.97
2019-04-07T16:08:51.715Z,34.96
2019-04-07T16:11:59.216Z,34.95
2019-04-07T16:15:02.892Z,34.98
2019-04-07T16:18:08.447Z,35.01
2019-04-07T16:21:12.480Z,34.97
2019-04-07T16:24:16.728Z,34.96
2019-04-07T16:27:20.291Z,34.98
2019-04-07T16:30:24.739Z,35.05
2019-04-07T16:33:32.527Z,34.95
2019-04-07T16:36:35.169Z,34.90
2019-04-07T16:39:38.857Z,34.87
2019-04-07T16:43:00.387Z,35.11
2019-04-07T16:45:50.759Z,35.20
2019-04-07T16:48:54.454Z,35.19
2019-04-07T16:52:00.757Z,35.19
2019-04-07T16:55:04.289Z,35.22
2019-04-07T16:58:08.494Z,35.26
2019-04-07T17:01:14.288Z,35.17
2019-04-07T17:04:17.822Z,35.09
2019-04-07T17:07:22.422Z,35.07
2019-04-07T17:10:32.340Z,35.03
2019-04-07T17:13:39.411Z,35.06
2019-04-07T17:16:39.498Z,35.04
2019-04-07T17:19:43.609Z,35.04
2019-04-07T17:22:48.440Z,35.03
2019-04-07T17:25:54.793Z,35.60
2019-04-07T17:28:59.512Z,35.85
2019-04-07T17:32:03.831Z,35.85
2019-04-07T17:35:11.874Z,35.88
2019-04-07T17:38:15.906Z,35.87
2019-04-07T17:41:20.192Z,35.83
2019-04-07T17:44:36.367Z,35.81
2019-04-07T17:48:07.020Z,35.76
2019-04-07T17:51:32.255Z,35.78
2019-04-07T17:54:52.548Z,35.73
2019-04-07T17:58:03.150Z,35.75
2019-04-07T18:01:24.984Z,35.71
2019-04-07T18:04:51.880Z,35.70
2019-04-07T18:08:15.554Z,35.67
2019-04-07T18:11:37.731Z,35.68
2019-04-07T18:15:03.570Z,35.68
2019-04-07T18:18:21.286Z,35.73
2019-04-07T18:21:44.967Z,35.79
2019-04-07T18:25:03.588Z,35.82
2019-04-07T18:28:13.284Z,35.80
2019-04-07T18:31:40.056Z,35.80
2019-04-07T18:34:52.875Z,35.86
2019-04-07T18:38:21.831Z,35.84
2019-04-07T18:41:44.766Z,35.78
2019-04-07T18:45:23.149Z,35.77
2019-04-07T18:48:59.149Z,35.79
2019-04-07T18:52:29.193Z,35.81
2019-04-07T18:55:50.486Z,35.86
2019-04-07T18:59:19.204Z,35.82
2019-04-07T19:02:37.840Z,35.77
2019-04-07T19:05:47.987Z,35.77
2019-04-07T19:09:00.021Z,35.76
2019-04-07T19:12:23.002Z,35.79
2019-04-07T19:15:51.548Z,35.84
2019-04-07T19:19:13.686Z,35.94
2019-04-07T19:22:35.027Z,35.95
2019-04-07T19:25:55.434Z,35.97
2019-04-07T19:29:19.550Z,35.96
2019-04-07T19:32:38.834Z,35.99
2019-04-07T19:36:05.999Z,36.00
2019-04-07T19:39:29.625Z,35.96
2019-04-07T19:42:49.872Z,35.95
2019-04-07T19:46:12.736Z,36.05
2019-04-07T19:49:24.057Z,36.05
2019-04-07T19:52:47.750Z,35.92
2019-04-07T19:56:10.204Z,35.90
2019-04-07T19:59:28.818Z,35.90
2019-04-07T20:02:40.560Z,35.90
2019-04-07T20:06:10.895Z,35.85
2019-04-07T20:09:32.427Z,35.84
2019-04-07T20:12:59.054Z,35.86
2019-04-07T20:16:14.915Z,35.85
2019-04-07T20:19:39.492Z,35.85
2019-04-07T20:23:02.746Z,35.82
2019-04-07T20:26:24.198Z,35.83
2019-04-07T20:29:43.370Z,35.82
2019-04-07T20:32:56.741Z,35.81
2019-04-07T20:36:19.395Z,35.83
2019-04-07T20:39:32.556Z,35.80
2019-04-07T20:42:50.518Z,35.81
2019-04-07T20:46:04.952Z,35.77
2019-04-07T20:49:35.673Z,35.81
2019-04-07T20:53:22.240Z,35.74
2019-04-07T20:56:42.047Z,35.80
2019-04-07T21:00:05.201Z,35.78
2019-04-07T21:03:27.674Z,35.86
2019-04-07T21:06:54.015Z,35.80
2019-04-07T21:10:18.976Z,35.81
2019-04-07T21:13:43.049Z,35.83
2019-04-07T21:17:07.357Z,35.86
2019-04-07T21:20:28.916Z,35.78
2019-04-07T21:23:53.917Z,35.81
2019-04-07T21:27:18.503Z,35.82
2019-04-07T21:30:31.912Z,35.81
2019-04-07T21:33:56.003Z,35.83
2019-04-07T21:37:23.037Z,35.82
2019-04-07T21:40:55.717Z,35.81
2019-04-07T21:44:20.668Z,35.83
2019-04-07T21:47:46.286Z,35.83
2019-04-07T21:51:04.541Z,35.85
2019-04-07T21:54:14.805Z,35.82
2019-04-07T21:57:54.623Z,35.78
2019-04-07T22:01:16.884Z,35.83
2019-04-07T22:04:45.804Z,35.83
2019-04-07T22:08:08.046Z,35.79
2019-04-07T22:11:09.234Z,35.82
2019-04-07T22:14:14.673Z,35.82
2019-04-07T22:17:18.117Z,35.85
2019-04-07T22:20:21.738Z,35.86
2019-04-07T22:23:25.208Z,35.80
2019-04-07T22:26:29.569Z,35.81
2019-04-07T22:29:34.965Z,35.83
2019-04-07T22:32:38.518Z,35.83
2019-04-07T22:35:44.021Z,35.82
2019-04-07T22:38:47.259Z,35.82
2019-04-07T22:41:50.824Z,35.81
2019-04-07T22:44:55.091Z,35.85
2019-04-07T22:47:59.585Z,35.81
2019-04-07T22:51:09.488Z,35.82
2019-04-07T22:54:10.266Z,35.80
2019-04-07T22:57:15.405Z,35.80
2019-04-07T23:00:22.042Z,35.81
2019-04-07T23:03:27.523Z,35.83
2019-04-07T23:06:32.947Z,35.78
2019-04-07T23:09:37.003Z,35.80
2019-04-07T23:12:40.961Z,35.80
2019-04-07T23:15:47.056Z,35.81
2019-04-07T23:18:50.782Z,35.79
2019-04-07T23:21:54.252Z,35.82
2019-04-07T23:24:59.384Z,35.77
2019-04-07T23:28:02.906Z,35.79
2019-04-07T23:31:06.396Z,35.81
2019-04-07T23:34:10.920Z,35.79
2019-04-07T23:37:15.454Z,35.81
2019-04-07T23:40:18.947Z,35.84
2019-04-07T23:43:22.455Z,35.81
2019-04-07T23:46:27.322Z,35.82
2019-04-07T23:49:31.289Z,35.77
2019-04-07T23:52:35.623Z,35.79
2019-04-07T23:55:40.330Z,35.80
2019-04-07T23:58:43.841Z,35.77
